Aérodrome :
LOGIN :

S'inscrire | Disclaimer

   EN    FR    IT 

 










Légende :    VFR   VFR Marginal   IFR   IFR Intensif   IFR Très Intensif
Visi : 
Plafond : 
>= 8 km
>= 3000ft
5 à 8 km
1000 à 3000 ft
1500m à 5 km
500 à 1000 ft
800 à 1500m
200 à 500 ft
< 800m
< 200 ft
Symboles :   Orages  Brouillard  Fortes neiges  Fortes précipitations  Vent > 20 kt
SIGMETs :   Divers  Orages  Givrage  Turbulence  Onde Orograph.  Cendres Volcan.







- Altitude de l'aérodrome : 19 ft
- Code IATA : LCY
- Voir les cartes d'approche


EGLC - London City

DERNIER METAR :
  • 260350Z AUTO 34008KT 290V010 9999 OVC012 04/01 Q1016

METARs EXPIRÉS :
  • 260320Z AUTO 30007KT 280V350 9999 BKN014 BKN018 04/01 Q1016
  • 260250Z AUTO 30007KT 280V340 9999 FEW018 04/01 Q1016
  • 260220Z AUTO 31008KT 270V010 9999 NCD 04/01 Q1016
  • 260150Z AUTO 31007KT 270V020 9999 NCD 04/01 Q1016
  • 260120Z AUTO 31007KT 260V010 9999 NCD 04/01 Q1016

TAF TAF EGLC
Valide du 26 à 03h jusqu'au 26 à 12h UTC


260201Z 2603/2612 32009KT 9999 FEW030
PROB30
TEMPO 2603/2609 BKN014
TEMPO 2609/2612 8000 -SHRA
PROB30
TEMPO 2611/2612 34015G25KT 4000 SHRA SHGS
ATIS : +44 20 7646 0224
Pas de NOTAMs connus pour ce terrain.



MET'MAP, la Météo Aéronautique d'un coup d'oeil ! - Copyright ORBIFLY Décembre 2007 - Disclaimer

ORBIFLY MET'MAP TEAM :

Programmation & Développement : Alexandra Zaïnal
Conception & Développement : Baudouin d'Aumeries
Co-Programmation & Développement : Marc-Olivier Méhu
Soutien technique & logistique : Manuel Goepfert

Contact : metmap@orbifly.com




SOURCES & CREDITS :

   NOAA